sensor_id;sensor_type;location;lat;lon;timestamp;pressure;altitude;pressure_sealevel;temperature;humidity
69630;BME280;56857;52.212;5.496;2023-05-07T00:01:09;101725.63;;;15.17;100.00
69630;BME280;56857;52.212;5.496;2023-05-07T00:03:35;101720.44;;;15.15;100.00
69630;BME280;56857;52.212;5.496;2023-05-07T00:06:00;101717.75;;;15.15;100.00
69630;BME280;56857;52.212;5.496;2023-05-07T00:08:25;101710.47;;;15.09;100.00
69630;BME280;56857;52.212;5.496;2023-05-07T00:10:51;101718.19;;;15.04;100.00
69630;BME280;56857;52.212;5.496;2023-05-07T00:13:16;101713.00;;;15.02;100.00
69630;BME280;56857;52.212;5.496;2023-05-07T00:15:41;101719.72;;;14.98;100.00
69630;BME280;56857;52.212;5.496;2023-05-07T00:18:07;101717.91;;;14.91;100.00
69630;BME280;56857;52.212;5.496;2023-05-07T00:20:32;101719.75;;;14.90;100.00
69630;BME280;56857;52.212;5.496;2023-05-07T00:22:57;101708.44;;;14.88;100.00
69630;BME280;56857;52.212;5.496;2023-05-07T00:25:23;101711.28;;;14.87;100.00
69630;BME280;56857;52.212;5.496;2023-05-07T00:27:48;101710.13;;;14.81;100.00
69630;BME280;56857;52.212;5.496;2023-05-07T00:30:14;101702.84;;;14.75;100.00
69630;BME280;56857;52.212;5.496;2023-05-07T00:32:39;101710.38;;;14.71;100.00
69630;BME280;56857;52.212;5.496;2023-05-07T00:35:05;101706.72;;;14.72;100.00
69630;BME280;56857;52.212;5.496;2023-05-07T00:37:30;101707.69;;;14.71;100.00
69630;BME280;56857;52.212;5.496;2023-05-07T00:39:56;101701.06;;;14.67;100.00
69630;BME280;56857;52.212;5.496;2023-05-07T00:42:21;101712.06;;;14.64;100.00
69630;BME280;56857;52.212;5.496;2023-05-07T00:44:47;101709.75;;;14.61;100.00
69630;BME280;56857;52.212;5.496;2023-05-07T00:47:14;101699.44;;;14.58;100.00
69630;BME280;56857;52.212;5.496;2023-05-07T00:49:42;101695.28;;;14.55;100.00
69630;BME280;56857;52.212;5.496;2023-05-07T00:52:09;101700.97;;;14.52;100.00
69630;BME280;56857;52.212;5.496;2023-05-07T00:54:36;101690.59;;;14.49;100.00
69630;BME280;56857;52.212;5.496;2023-05-07T00:57:03;101692.63;;;14.47;100.00
69630;BME280;56857;52.212;5.496;2023-05-07T00:59:28;101687.47;;;14.46;100.00
69630;BME280;56857;52.212;5.496;2023-05-07T01:01:54;101693.97;;;14.43;100.00
69630;BME280;56857;52.212;5.496;2023-05-07T01:04:19;101689.81;;;14.41;100.00
69630;BME280;56857;52.212;5.496;2023-05-07T01:06:45;101695.31;;;14.39;100.00
69630;BME280;56857;52.212;5.496;2023-05-07T01:09:12;101689.31;;;14.37;100.00
69630;BME280;56857;52.212;5.496;2023-05-07T01:11:38;101685.66;;;14.38;100.00
69630;BME280;56857;52.212;5.496;2023-05-07T01:14:04;101685.66;;;14.38;100.00
69630;BME280;56857;52.212;5.496;2023-05-07T01:16:30;101691.00;;;14.38;100.00
69630;BME280;56857;52.212;5.496;2023-05-07T01:18:55;101692.00;;;14.37;100.00
69630;BME280;56857;52.212;5.496;2023-05-07T01:21:25;101680.69;;;14.35;100.00
69630;BME280;56857;52.212;5.496;2023-05-07T01:23:50;101678.16;;;14.33;100.00
69630;BME280;56857;52.212;5.496;2023-05-07T01:26:16;101674.69;;;14.33;100.00
69630;BME280;56857;52.212;5.496;2023-05-07T01:28:41;101681.03;;;14.32;100.00
69630;BME280;56857;52.212;5.496;2023-05-07T01:31:07;101688.34;;;14.30;100.00
69630;BME280;56857;52.212;5.496;2023-05-07T01:33:34;101689.38;;;14.29;100.00
69630;BME280;56857;52.212;5.496;2023-05-07T01:36:02;101689.53;;;14.27;100.00
69630;BME280;56857;52.212;5.496;2023-05-07T01:38:29;101690.19;;;14.29;100.00
69630;BME280;56857;52.212;5.496;2023-05-07T01:40:55;101685.03;;;14.28;100.00
69630;BME280;56857;52.212;5.496;2023-05-07T01:43:21;101690.34;;;14.28;100.00
69630;BME280;56857;52.212;5.496;2023-05-07T01:45:46;101688.53;;;14.28;100.00
69630;BME280;56857;52.212;5.496;2023-05-07T01:48:13;101692.88;;;14.29;100.00
69630;BME280;56857;52.212;5.496;2023-05-07T01:50:39;101695.53;;;14.29;100.00
69630;BME280;56857;52.212;5.496;2023-05-07T01:53:04;101688.34;;;14.30;100.00
69630;BME280;56857;52.212;5.496;2023-05-07T01:55:30;101687.53;;;14.29;100.00
69630;BME280;56857;52.212;5.496;2023-05-07T01:57:58;101691.38;;;14.27;100.00
69630;BME280;56857;52.212;5.496;2023-05-07T02:00:24;101683.84;;;14.30;100.00
69630;BME280;56857;52.212;5.496;2023-05-07T02:02:49;101682.34;;;14.36;100.00
69630;BME280;56857;52.212;5.496;2023-05-07T02:05:15;101683.16;;;14.36;100.00
69630;BME280;56857;52.212;5.496;2023-05-07T02:07:40;101680.50;;;14.36;100.00
69630;BME280;56857;52.212;5.496;2023-05-07T02:10:06;101688.16;;;14.40;100.00
69630;BME280;56857;52.212;5.496;2023-05-07T02:12:31;101686.78;;;14.44;100.00
69630;BME280;56857;52.212;5.496;2023-05-07T02:14:57;101685.13;;;14.43;100.00
69630;BME280;56857;52.212;5.496;2023-05-07T02:17:22;101683.28;;;14.43;100.00
69630;BME280;56857;52.212;5.496;2023-05-07T02:19:47;101681.28;;;14.45;100.00
69630;BME280;56857;52.212;5.496;2023-05-07T02:22:12;101678.44;;;14.47;100.00
69630;BME280;56857;52.212;5.496;2023-05-07T02:24:38;101680.94;;;14.48;100.00
69630;BME280;56857;52.212;5.496;2023-05-07T02:27:03;101679.09;;;14.49;100.00
69630;BME280;56857;52.212;5.496;2023-05-07T02:29:29;101688.75;;;14.50;100.00
69630;BME280;56857;52.212;5.496;2023-05-07T02:31:54;101683.41;;;14.50;100.00
69630;BME280;56857;52.212;5.496;2023-05-07T02:34:20;101679.09;;;14.49;100.00
69630;BME280;56857;52.212;5.496;2023-05-07T02:36:45;101683.13;;;14.45;100.00
69630;BME280;56857;52.212;5.496;2023-05-07T02:39:12;101680.97;;;14.40;100.00
69630;BME280;56857;52.212;5.496;2023-05-07T02:41:37;101687.31;;;14.39;100.00
69630;BME280;56857;52.212;5.496;2023-05-07T02:44:03;101688.34;;;14.38;100.00
69630;BME280;56857;52.212;5.496;2023-05-07T02:46:28;101692.19;;;14.35;100.00
69630;BME280;56857;52.212;5.496;2023-05-07T02:48:54;101691.03;;;14.30;100.00
69630;BME280;56857;52.212;5.496;2023-05-07T02:51:20;101683.22;;;14.28;100.00
69630;BME280;56857;52.212;5.496;2023-05-07T02:53:46;101689.53;;;14.27;100.00
69630;BME280;56857;52.212;5.496;2023-05-07T02:56:12;101681.72;;;14.26;100.00
69630;BME280;56857;52.212;5.496;2023-05-07T02:58:37;101682.88;;;14.23;100.00
69630;BME280;56857;52.212;5.496;2023-05-07T03:01:03;101685.72;;;14.22;100.00
69630;BME280;56857;52.212;5.496;2023-05-07T03:03:28;101684.72;;;14.23;100.00
69630;BME280;56857;52.212;5.496;2023-05-07T03:05:53;101686.56;;;14.22;100.00
69630;BME280;56857;52.212;5.496;2023-05-07T03:08:19;101684.41;;;14.18;100.00
69630;BME280;56857;52.212;5.496;2023-05-07T03:10:44;101691.75;;;14.16;100.00
69630;BME280;56857;52.212;5.496;2023-05-07T03:13:10;101691.75;;;14.16;100.00
69630;BME280;56857;52.212;5.496;2023-05-07T03:15:35;101684.75;;;14.14;100.00
69630;BME280;56857;52.212;5.496;2023-05-07T03:18:00;101684.25;;;14.11;100.00
69630;BME280;56857;52.212;5.496;2023-05-07T03:20:25;101685.28;;;14.10;100.00
69630;BME280;56857;52.212;5.496;2023-05-07T03:22:51;101680.94;;;14.09;100.00
69630;BME280;56857;52.212;5.496;2023-05-07T03:25:16;101689.28;;;14.06;100.00
69630;BME280;56857;52.212;5.496;2023-05-07T03:27:42;101689.59;;;14.03;100.00
69630;BME280;56857;52.212;5.496;2023-05-07T03:30:08;101684.66;;;14.00;100.00
69630;BME280;56857;52.212;5.496;2023-05-07T03:32:33;101681.97;;;14.00;100.00
69630;BME280;56857;52.212;5.496;2023-05-07T03:34:58;101688.28;;;13.99;100.00
69630;BME280;56857;52.212;5.496;2023-05-07T03:37:24;101677.81;;;13.97;100.00
69630;BME280;56857;52.212;5.496;2023-05-07T03:39:49;101679.00;;;13.95;100.00
69630;BME280;56857;52.212;5.496;2023-05-07T03:42:14;101683.50;;;13.94;100.00
69630;BME280;56857;52.212;5.496;2023-05-07T03:44:40;101685.81;;;13.97;100.00
69630;BME280;56857;52.212;5.496;2023-05-07T03:47:05;101686.66;;;13.98;100.00
69630;BME280;56857;52.212;5.496;2023-05-07T03:49:30;101681.31;;;13.98;100.00
69630;BME280;56857;52.212;5.496;2023-05-07T03:51:56;101685.63;;;13.99;100.00
69630;BME280;56857;52.212;5.496;2023-05-07T03:54:21;101690.97;;;13.99;100.00
69630;BME280;56857;52.212;5.496;2023-05-07T03:56:46;101688.81;;;13.94;100.00
69630;BME280;56857;52.212;5.496;2023-05-07T03:59:12;101687.81;;;13.87;100.00
69630;BME280;56857;52.212;5.496;2023-05-07T04:01:38;101687.66;;;13.80;100.00
69630;BME280;56857;52.212;5.496;2023-05-07T04:04:03;101695.84;;;13.79;100.00
69630;BME280;56857;52.212;5.496;2023-05-07T04:06:29;101705.34;;;13.81;100.00
69630;BME280;56857;52.212;5.496;2023-05-07T04:08:54;101697.00;;;13.84;100.00
69630;BME280;56857;52.212;5.496;2023-05-07T04:11:20;101702.84;;;13.88;100.00
69630;BME280;56857;52.212;5.496;2023-05-07T04:13:45;101706.81;;;13.92;100.00
69630;BME280;56857;52.212;5.496;2023-05-07T04:16:11;101701.66;;;13.90;100.00
69630;BME280;56857;52.212;5.496;2023-05-07T04:18:36;101704.47;;;13.89;100.00
69630;BME280;56857;52.212;5.496;2023-05-07T04:21:02;101707.63;;;13.93;100.00
69630;BME280;56857;52.212;5.496;2023-05-07T04:23:27;101705.16;;;13.91;100.00
69630;BME280;56857;52.212;5.496;2023-05-07T04:25:52;101709.66;;;13.90;100.00
69630;BME280;56857;52.212;5.496;2023-05-07T04:28:17;101709.00;;;13.88;100.00
69630;BME280;56857;52.212;5.496;2023-05-07T04:30:43;101714.31;;;13.88;100.00
69630;BME280;56857;52.212;5.496;2023-05-07T04:33:08;101720.66;;;13.87;100.00
69630;BME280;56857;52.212;5.496;2023-05-07T04:35:35;101716.16;;;13.88;100.00
69630;BME280;56857;52.212;5.496;2023-05-07T04:38:00;101720.31;;;13.90;100.00
69630;BME280;56857;52.212;5.496;2023-05-07T04:40:25;101726.81;;;13.88;100.00
69630;BME280;56857;52.212;5.496;2023-05-07T04:42:51;101722.16;;;13.82;100.00
69630;BME280;56857;52.212;5.496;2023-05-07T04:45:16;101728.50;;;13.81;100.00
69630;BME280;56857;52.212;5.496;2023-05-07T04:47:41;101726.31;;;13.76;100.00
69630;BME280;56857;52.212;5.496;2023-05-07T04:50:07;101728.31;;;13.74;100.00
69630;BME280;56857;52.212;5.496;2023-05-07T04:52:32;101727.00;;;13.70;100.00
69630;BME280;56857;52.212;5.496;2023-05-07T04:55:01;101723.66;;;13.68;100.00
69630;BME280;56857;52.212;5.496;2023-05-07T04:57:27;101734.31;;;13.68;100.00
69630;BME280;56857;52.212;5.496;2023-05-07T04:59:53;101730.66;;;13.69;100.00
69630;BME280;56857;52.212;5.496;2023-05-07T05:02:18;101730.50;;;13.71;100.00
69630;BME280;56857;52.212;5.496;2023-05-07T05:04:44;101735.97;;;13.77;100.00
69630;BME280;56857;52.212;5.496;2023-05-07T05:07:09;101735.50;;;13.82;100.00
69630;BME280;56857;52.212;5.496;2023-05-07T05:09:34;101740.63;;;13.83;100.00
69630;BME280;56857;52.212;5.496;2023-05-07T05:12:00;101732.31;;;13.86;100.00
69630;BME280;56857;52.212;5.496;2023-05-07T05:14:25;101729.63;;;13.86;100.00
69630;BME280;56857;52.212;5.496;2023-05-07T05:16:50;101730.47;;;13.87;100.00
69630;BME280;56857;52.212;5.496;2023-05-07T05:19:16;101735.13;;;13.93;100.00
69630;BME280;56857;52.212;5.496;2023-05-07T05:21:41;101731.44;;;14.02;100.00
69630;BME280;56857;52.212;5.496;2023-05-07T05:24:06;101737.09;;;14.07;100.00
69630;BME280;56857;52.212;5.496;2023-05-07T05:26:32;101741.75;;;14.13;100.00
69630;BME280;56857;52.212;5.496;2023-05-07T05:28:57;101739.25;;;14.12;100.00
69630;BME280;56857;52.212;5.496;2023-05-07T05:31:22;101737.09;;;14.16;100.00
69630;BME280;56857;52.212;5.496;2023-05-07T05:33:48;101747.22;;;14.20;100.00
69630;BME280;56857;52.212;5.496;2023-05-07T05:36:13;101741.72;;;14.22;100.00
69630;BME280;56857;52.212;5.496;2023-05-07T05:38:39;101747.56;;;14.25;100.00
69630;BME280;56857;52.212;5.496;2023-05-07T05:41:05;101748.53;;;14.24;100.00
69630;BME280;56857;52.212;5.496;2023-05-07T05:43:31;101757.22;;;14.26;100.00
69630;BME280;56857;52.212;5.496;2023-05-07T05:45:56;101756.19;;;14.27;100.00
69630;BME280;56857;52.212;5.496;2023-05-07T05:48:21;101752.22;;;14.31;100.00
69630;BME280;56857;52.212;5.496;2023-05-07T05:50:47;101754.34;;;14.36;100.00
69630;BME280;56857;52.212;5.496;2023-05-07T05:53:12;101762.84;;;14.40;100.00
69630;BME280;56857;52.212;5.496;2023-05-07T05:55:38;101760.16;;;14.48;100.00
69630;BME280;56857;52.212;5.496;2023-05-07T05:58:03;101768.31;;;14.54;100.00
69630;BME280;56857;52.212;5.496;2023-05-07T06:00:29;101761.00;;;14.56;100.00
69630;BME280;56857;52.212;5.496;2023-05-07T06:02:54;101764.63;;;14.64;100.00
69630;BME280;56857;52.212;5.496;2023-05-07T06:05:19;101764.75;;;14.70;100.00
69630;BME280;56857;52.212;5.496;2023-05-07T06:07:44;101766.06;;;14.74;100.00
69630;BME280;56857;52.212;5.496;2023-05-07T06:10:10;101773.09;;;14.75;100.00
69630;BME280;56857;52.212;5.496;2023-05-07T06:12:35;101772.56;;;14.80;100.00
69630;BME280;56857;52.212;5.496;2023-05-07T06:15:00;101766.38;;;14.79;100.00
69630;BME280;56857;52.212;5.496;2023-05-07T06:17:26;101779.03;;;14.86;100.00
69630;BME280;56857;52.212;5.496;2023-05-07T06:19:52;101780.19;;;14.91;100.00
69630;BME280;56857;52.212;5.496;2023-05-07T06:22:17;101773.75;;;15.00;100.00
69630;BME280;56857;52.212;5.496;2023-05-07T06:24:42;101774.28;;;15.04;100.00
69630;BME280;56857;52.212;5.496;2023-05-07T06:27:08;101776.41;;;15.09;100.00
69630;BME280;56857;52.212;5.496;2023-05-07T06:29:34;101773.34;;;15.20;100.00
69630;BME280;56857;52.212;5.496;2023-05-07T06:32:09;101771.41;;;15.28;100.00
69630;BME280;56857;52.212;5.496;2023-05-07T06:34:35;101771.84;;;15.40;100.00
69630;BME280;56857;52.212;5.496;2023-05-07T06:37:00;101785.31;;;15.47;100.00
69630;BME280;56857;52.212;5.496;2023-05-07T06:39:26;101781.47;;;15.49;100.00
69630;BME280;56857;52.212;5.496;2023-05-07T06:41:51;101776.06;;;15.58;100.00
69630;BME280;56857;52.212;5.496;2023-05-07T06:44:16;101783.69;;;15.69;100.00
69630;BME280;56857;52.212;5.496;2023-05-07T06:46:42;101788.75;;;15.79;100.00
69630;BME280;56857;52.212;5.496;2023-05-07T06:49:07;101790.91;;;15.83;100.00
69630;BME280;56857;52.212;5.496;2023-05-07T06:51:33;101793.22;;;15.86;100.00
69630;BME280;56857;52.212;5.496;2023-05-07T06:53:58;101781.72;;;15.86;100.00
69630;BME280;56857;52.212;5.496;2023-05-07T06:56:24;101786.50;;;15.90;100.00
69630;BME280;56857;52.212;5.496;2023-05-07T06:58:49;101794.53;;;15.90;100.00
69630;BME280;56857;52.212;5.496;2023-05-07T07:01:14;101792.66;;;15.91;100.00
69630;BME280;56857;52.212;5.496;2023-05-07T07:03:39;101793.97;;;15.95;100.00
69630;BME280;56857;52.212;5.496;2023-05-07T07:06:05;101793.44;;;15.99;100.00
69630;BME280;56857;52.212;5.496;2023-05-07T07:08:30;101793.06;;;16.03;100.00
69630;BME280;56857;52.212;5.496;2023-05-07T07:10:55;101796.09;;;15.99;100.00
69630;BME280;56857;52.212;5.496;2023-05-07T07:13:21;101800.28;;;16.02;100.00
69630;BME280;56857;52.212;5.496;2023-05-07T07:15:46;101794.09;;;16.02;100.00
69630;BME280;56857;52.212;5.496;2023-05-07T07:18:11;101790.56;;;16.01;100.00
69630;BME280;56857;52.212;5.496;2023-05-07T07:20:37;101799.72;;;16.07;100.00
69630;BME280;56857;52.212;5.496;2023-05-07T07:23:02;101798.09;;;16.20;100.00
69630;BME280;56857;52.212;5.496;2023-05-07T07:25:28;101792.91;;;16.34;100.00
69630;BME280;56857;52.212;5.496;2023-05-07T07:27:53;101788.78;;;16.46;100.00
69630;BME280;56857;52.212;5.496;2023-05-07T07:30:18;101791.25;;;16.48;100.00
69630;BME280;56857;52.212;5.496;2023-05-07T07:32:44;101790.34;;;16.55;100.00
69630;BME280;56857;52.212;5.496;2023-05-07T07:35:09;101794.00;;;16.69;100.00
69630;BME280;56857;52.212;5.496;2023-05-07T07:37:34;101793.44;;;16.74;100.00
69630;BME280;56857;52.212;5.496;2023-05-07T07:40:00;101784.69;;;16.80;100.00
69630;BME280;56857;52.212;5.496;2023-05-07T07:42:26;101783.56;;;16.89;100.00
69630;BME280;56857;52.212;5.496;2023-05-07T07:44:51;101785.03;;;16.91;100.00
69630;BME280;56857;52.212;5.496;2023-05-07T07:47:17;101792.41;;;17.04;100.00
69630;BME280;56857;52.212;5.496;2023-05-07T07:49:42;101791.47;;;17.12;100.00
69630;BME280;56857;52.212;5.496;2023-05-07T07:52:08;101791.16;;;17.22;100.00
69630;BME280;56857;52.212;5.496;2023-05-07T07:54:34;101794.09;;;17.27;100.00
69630;BME280;56857;52.212;5.496;2023-05-07T07:57:00;101797.31;;;17.37;100.00
69630;BME280;56857;52.212;5.496;2023-05-07T07:59:25;101803.41;;;17.52;100.00
69630;BME280;56857;52.212;5.496;2023-05-07T08:01:50;101800.28;;;17.70;100.00
69630;BME280;56857;52.212;5.496;2023-05-07T08:04:16;101798.88;;;17.74;100.00
69630;BME280;56857;52.212;5.496;2023-05-07T08:06:41;101796.00;;;17.76;100.00
69630;BME280;56857;52.212;5.496;2023-05-07T08:09:07;101798.50;;;17.77;100.00
69630;BME280;56857;52.212;5.496;2023-05-07T08:11:32;101799.41;;;17.85;100.00
69630;BME280;56857;52.212;5.496;2023-05-07T08:13:58;101806.91;;;17.96;100.00
69630;BME280;56857;52.212;5.496;2023-05-07T08:16:23;101805.69;;;17.98;100.00
69630;BME280;56857;52.212;5.496;2023-05-07T08:18:49;101809.91;;;18.08;100.00
69630;BME280;56857;52.212;5.496;2023-05-07T08:21:14;101794.53;;;18.23;100.00
69630;BME280;56857;52.212;5.496;2023-05-07T08:23:39;101799.16;;;18.36;100.00
69630;BME280;56857;52.212;5.496;2023-05-07T08:26:04;101799.00;;;18.50;100.00
69630;BME280;56857;52.212;5.496;2023-05-07T08:28:30;101803.03;;;18.68;100.00
69630;BME280;56857;52.212;5.496;2023-05-07T08:30:56;101809.78;;;18.92;100.00
69630;BME280;56857;52.212;5.496;2023-05-07T08:33:22;101807.56;;;19.09;100.00
69630;BME280;56857;52.212;5.496;2023-05-07T08:35:47;101804.91;;;19.22;100.00
69630;BME280;56857;52.212;5.496;2023-05-07T08:38:13;101801.41;;;19.28;100.00
69630;BME280;56857;52.212;5.496;2023-05-07T08:40:39;101809.47;;;19.28;100.00
69630;BME280;56857;52.212;5.496;2023-05-07T08:43:08;101806.53;;;19.16;100.00
69630;BME280;56857;52.212;5.496;2023-05-07T08:45:34;101814.16;;;19.06;100.00
69630;BME280;56857;52.212;5.496;2023-05-07T08:48:02;101808.50;;;18.88;100.00
69630;BME280;56857;52.212;5.496;2023-05-07T08:50:28;101808.69;;;18.73;100.00
69630;BME280;56857;52.212;5.496;2023-05-07T08:52:54;101818.91;;;18.63;100.00
69630;BME280;56857;52.212;5.496;2023-05-07T08:55:20;101811.22;;;18.53;100.00
69630;BME280;56857;52.212;5.496;2023-05-07T08:57:46;101812.78;;;18.41;100.00
69630;BME280;56857;52.212;5.496;2023-05-07T09:00:12;101812.97;;;18.33;100.00
69630;BME280;56857;52.212;5.496;2023-05-07T09:02:37;101811.75;;;18.35;100.00
69630;BME280;56857;52.212;5.496;2023-05-07T09:05:03;101816.06;;;18.36;100.00
69630;BME280;56857;52.212;5.496;2023-05-07T09:07:29;101816.03;;;18.29;100.00
69630;BME280;56857;52.212;5.496;2023-05-07T09:09:55;101818.06;;;18.27;100.00
69630;BME280;56857;52.212;5.496;2023-05-07T09:12:21;101813.13;;;18.31;100.00
69630;BME280;56857;52.212;5.496;2023-05-07T09:14:46;101814.59;;;18.34;100.00
69630;BME280;56857;52.212;5.496;2023-05-07T09:17:12;101815.72;;;18.46;100.00
69630;BME280;56857;52.212;5.496;2023-05-07T09:19:38;101804.44;;;18.57;100.00
69630;BME280;56857;52.212;5.496;2023-05-07T09:22:05;101802.94;;;18.48;100.00
69630;BME280;56857;52.212;5.496;2023-05-07T09:24:30;101808.09;;;18.49;100.00
69630;BME280;56857;52.212;5.496;2023-05-07T09:26:59;101813.03;;;18.46;100.00
69630;BME280;56857;52.212;5.496;2023-05-07T09:29:24;101816.16;;;18.49;100.00
69630;BME280;56857;52.212;5.496;2023-05-07T09:31:50;101813.88;;;18.53;100.00
69630;BME280;56857;52.212;5.496;2023-05-07T09:34:15;101808.34;;;18.55;100.00
69630;BME280;56857;52.212;5.496;2023-05-07T09:36:41;101812.50;;;18.57;100.00
69630;BME280;56857;52.212;5.496;2023-05-07T09:39:07;101814.78;;;18.60;100.00
69630;BME280;56857;52.212;5.496;2023-05-07T09:41:32;101809.81;;;18.57;100.00
69630;BME280;56857;52.212;5.496;2023-05-07T09:43:58;101814.91;;;18.45;100.00
69630;BME280;56857;52.212;5.496;2023-05-07T09:46:30;101819.66;;;18.50;100.00
69630;BME280;56857;52.212;5.496;2023-05-07T09:48:57;101819.63;;;18.43;100.00
69630;BME280;56857;52.212;5.496;2023-05-07T09:51:33;101822.31;;;18.43;100.00
69630;BME280;56857;52.212;5.496;2023-05-07T09:54:02;101816.50;;;18.40;100.00
69630;BME280;56857;52.212;5.496;2023-05-07T09:56:29;101818.16;;;18.41;100.00
69630;BME280;56857;52.212;5.496;2023-05-07T09:58:57;101824.41;;;18.48;100.00
69630;BME280;56857;52.212;5.496;2023-05-07T10:01:25;101825.38;;;18.40;100.00
69630;BME280;56857;52.212;5.496;2023-05-07T10:03:51;101827.50;;;18.17;100.00
69630;BME280;56857;52.212;5.496;2023-05-07T10:06:18;101828.72;;;18.14;100.00
69630;BME280;56857;52.212;5.496;2023-05-07T10:08:45;101836.78;;;18.14;100.00
69630;BME280;56857;52.212;5.496;2023-05-07T10:11:11;101835.97;;;18.14;100.00
69630;BME280;56857;52.212;5.496;2023-05-07T10:13:37;101835.31;;;18.12;100.00
69630;BME280;56857;52.212;5.496;2023-05-07T10:16:05;101827.13;;;18.20;100.00
69630;BME280;56857;52.212;5.496;2023-05-07T10:18:32;101837.66;;;18.21;100.00
69630;BME280;56857;52.212;5.496;2023-05-07T10:21:04;101835.59;;;18.23;100.00
69630;BME280;56857;52.212;5.496;2023-05-07T10:23:32;101836.19;;;18.19;100.00
69630;BME280;56857;52.212;5.496;2023-05-07T10:26:00;101839.72;;;18.19;100.00
69630;BME280;56857;52.212;5.496;2023-05-07T10:28:29;101845.13;;;18.26;100.00
69630;BME280;56857;52.212;5.496;2023-05-07T10:31:04;101836.28;;;18.32;100.00
69630;BME280;56857;52.212;5.496;2023-05-07T10:33:33;101840.88;;;18.38;100.00
69630;BME280;56857;52.212;5.496;2023-05-07T10:36:00;101839.28;;;18.50;100.00
69630;BME280;56857;52.212;5.496;2023-05-07T10:38:27;101834.53;;;18.52;100.00
69630;BME280;56857;52.212;5.496;2023-05-07T10:40:53;101831.06;;;18.59;100.00
69630;BME280;56857;52.212;5.496;2023-05-07T10:43:18;101836.47;;;18.65;100.00
69630;BME280;56857;52.212;5.496;2023-05-07T10:46:10;101833.88;;;18.79;100.00
69630;BME280;56857;52.212;5.496;2023-05-07T10:51:28;101839.78;;;19.02;100.00
69630;BME280;56857;52.212;5.496;2023-05-07T10:56:38;101839.16;;;20.01;100.00
69630;BME280;56857;52.212;5.496;2023-05-07T10:59:30;101840.78;;;20.35;100.00
69630;BME280;56857;52.212;5.496;2023-05-07T11:02:00;101833.22;;;20.77;100.00
69630;BME280;56857;52.212;5.496;2023-05-07T11:04:25;101828.06;;;21.21;100.00
69630;BME280;56857;52.212;5.496;2023-05-07T11:10:00;101831.38;;;21.86;100.00
69630;BME280;56857;52.212;5.496;2023-05-07T11:15:03;101831.56;;;21.66;100.00
69630;BME280;56857;52.212;5.496;2023-05-07T11:17:29;101829.16;;;21.51;100.00
69630;BME280;56857;52.212;5.496;2023-05-07T11:19:55;101831.72;;;21.33;100.00
69630;BME280;56857;52.212;5.496;2023-05-07T11:24:55;101836.25;;;21.01;100.00
69630;BME280;56857;52.212;5.496;2023-05-07T11:27:24;101841.75;;;20.68;100.00
69630;BME280;56857;52.212;5.496;2023-05-07T11:29:50;101839.31;;;20.40;100.00
69630;BME280;56857;52.212;5.496;2023-05-07T11:32:15;101844.13;;;20.24;100.00
69630;BME280;56857;52.212;5.496;2023-05-07T11:34:51;101845.13;;;20.43;100.00
69630;BME280;56857;52.212;5.496;2023-05-07T11:37:17;101850.50;;;20.56;100.00
69630;BME280;56857;52.212;5.496;2023-05-07T11:39:43;101845.31;;;20.68;100.00
69630;BME280;56857;52.212;5.496;2023-05-07T11:42:25;101845.84;;;20.90;100.00
69630;BME280;56857;52.212;5.496;2023-05-07T11:44:51;101840.16;;;21.05;100.00
69630;BME280;56857;52.212;5.496;2023-05-07T11:47:18;101845.75;;;21.10;100.00
69630;BME280;56857;52.212;5.496;2023-05-07T11:49:45;101844.97;;;21.03;100.00
69630;BME280;56857;52.212;5.496;2023-05-07T11:52:12;101843.25;;;21.09;100.00
69630;BME280;56857;52.212;5.496;2023-05-07T11:54:38;101841.50;;;21.27;100.00
69630;BME280;56857;52.212;5.496;2023-05-07T11:57:03;101837.94;;;21.34;100.00
69630;BME280;56857;52.212;5.496;2023-05-07T11:59:28;101842.06;;;21.43;100.00
69630;BME280;56857;52.212;5.496;2023-05-07T12:01:57;101841.16;;;21.56;100.00
69630;BME280;56857;52.212;5.496;2023-05-07T12:04:22;101843.72;;;21.75;100.00
69630;BME280;56857;52.212;5.496;2023-05-07T12:06:48;101835.47;;;22.20;100.00
69630;BME280;56857;52.212;5.496;2023-05-07T12:09:13;101841.78;;;22.88;100.00
69630;BME280;56857;52.212;5.496;2023-05-07T12:11:38;101839.56;;;23.33;100.00
69630;BME280;56857;52.212;5.496;2023-05-07T12:14:04;101840.19;;;24.01;100.00
69630;BME280;56857;52.212;5.496;2023-05-07T12:16:29;101839.38;;;24.36;100.00
69630;BME280;56857;52.212;5.496;2023-05-07T12:18:55;101837.94;;;23.98;100.00
69630;BME280;56857;52.212;5.496;2023-05-07T12:21:21;101836.00;;;23.63;100.00
69630;BME280;56857;52.212;5.496;2023-05-07T12:23:47;101844.09;;;23.63;100.00
69630;BME280;56857;52.212;5.496;2023-05-07T12:26:12;101834.16;;;23.75;100.00
69630;BME280;56857;52.212;5.496;2023-05-07T12:28:38;101835.91;;;23.70;100.00
69630;BME280;56857;52.212;5.496;2023-05-07T12:31:05;101842.22;;;23.52;100.00
69630;BME280;56857;52.212;5.496;2023-05-07T12:33:30;101840.84;;;23.31;100.00
69630;BME280;56857;52.212;5.496;2023-05-07T12:35:56;101834.28;;;23.08;100.00
69630;BME280;56857;52.212;5.496;2023-05-07T12:38:22;101842.13;;;22.98;100.00
69630;BME280;56857;52.212;5.496;2023-05-07T12:40:53;101839.25;;;23.11;100.00
69630;BME280;56857;52.212;5.496;2023-05-07T12:43:23;101840.03;;;23.30;100.00
69630;BME280;56857;52.212;5.496;2023-05-07T12:45:50;101840.50;;;23.69;100.00
69630;BME280;56857;52.212;5.496;2023-05-07T12:48:16;101841.16;;;24.18;100.00